Time,TemperatureF,DewpointF,PressureIn,WindDirection,WindDirectionDegrees,WindSpeedMPH,WindSpeedGustMPH,Humidity,HourlyPrecipIn,Conditions,Clouds,dailyrainin,SoftwareType,DateUTC
2013-06-24 00:03:00,74.9,73.0,30.06,East,93,0.0,-999.0,92,-99.99,,,0.00,weatherlink.com 1.10,2013-06-24 05:03:00,
2013-06-24 00:18:00,74.8,72.0,30.07,East,93,0.0,-999.0,92,-99.99,,,0.00,weatherlink.com 1.10,2013-06-24 05:18:00,
2013-06-24 00:48:00,74.6,73.0,30.07,East,94,0.0,-999.0,93,-99.99,,,0.00,weatherlink.com 1.10,2013-06-24 05:48:00,
2013-06-24 01:18:00,74.3,72.0,30.06,East,94,0.0,-999.0,93,-99.99,,,0.00,weatherlink.com 1.10,2013-06-24 06:18:00,
2013-06-24 01:33:00,74.1,72.0,30.06,East,94,0.0,-999.0,93,-99.99,,,0.00,weatherlink.com 1.10,2013-06-24 06:33:00,
2013-06-24 02:03:00,73.7,72.0,30.06,East,94,0.0,-999.0,94,-99.99,,,0.00,weatherlink.com 1.10,2013-06-24 07:03:00,
2013-06-24 02:18:00,73.6,72.0,30.06,East,94,0.0,-999.0,94,-99.99,,,0.00,weatherlink.com 1.10,2013-06-24 07:18:00,
2013-06-24 02:33:00,73.5,72.0,30.06,East,94,0.0,-999.0,94,-99.99,,,0.00,weatherlink.com 1.10,2013-06-24 07:33:00,
2013-06-24 03:03:00,73.3,72.0,30.06,East,94,0.0,-999.0,95,-99.99,,,0.00,weatherlink.com 1.10,2013-06-24 08:03:00,
2013-06-24 03:18:00,73.1,72.0,30.06,East,94,0.0,-999.0,95,-99.99,,,0.00,weatherlink.com 1.10,2013-06-24 08:18:00,
2013-06-24 03:33:00,73.1,72.0,30.07,East,94,0.0,-999.0,95,-99.99,,,0.00,weatherlink.com 1.10,2013-06-24 08:33:00,
2013-06-24 03:48:00,73.0,72.0,30.07,East,94,0.0,-999.0,95,-99.99,,,0.00,weatherlink.com 1.10,2013-06-24 08:48:00,
2013-06-24 04:03:00,73.0,72.0,30.07,East,94,0.0,-999.0,95,-99.99,,,0.00,weatherlink.com 1.10,2013-06-24 09:03:00,
2013-06-24 04:18:00,72.9,71.0,30.08,East,94,0.0,-999.0,95,-99.99,,,0.00,weatherlink.com 1.10,2013-06-24 09:18:00,
2013-06-24 04:33:00,72.8,71.0,30.08,East,94,0.0,-999.0,95,-99.99,,,0.00,weatherlink.com 1.10,2013-06-24 09:33:00,
2013-06-24 04:48:00,72.9,72.0,30.08,East,94,0.0,-999.0,96,-99.99,,,0.00,weatherlink.com 1.10,2013-06-24 09:48:00,
2013-06-24 05:03:00,73.0,72.0,30.08,East,94,0.0,-999.0,96,-99.99,,,0.00,weatherlink.com 1.10,2013-06-24 10:03:00,
2013-06-24 05:18:00,72.9,72.0,30.08,East,94,0.0,-999.0,96,-99.99,,,0.00,weatherlink.com 1.10,2013-06-24 10:18:00,
2013-06-24 05:33:00,73.0,72.0,30.09,East,94,0.0,-999.0,96,-99.99,,,0.00,weatherlink.com 1.10,2013-06-24 10:33:00,
2013-06-24 05:48:00,72.9,72.0,30.09,East,94,0.0,-999.0,96,-99.99,,,0.00,weatherlink.com 1.10,2013-06-24 10:48:00,
2013-06-24 06:03:00,72.9,72.0,30.09,East,94,0.0,-999.0,96,-99.99,,,0.00,weatherlink.com 1.10,2013-06-24 11:03:00,
2013-06-24 06:33:00,73.0,72.0,30.09,East,94,0.0,-999.0,96,-99.99,,,0.00,weatherlink.com 1.10,2013-06-24 11:33:00,
2013-06-24 06:48:00,73.3,72.0,30.09,East,94,0.0,-999.0,96,-99.99,,,0.00,weatherlink.com 1.10,2013-06-24 11:48:00,
2013-06-24 07:03:00,73.8,73.0,30.10,North,360,0.0,-999.0,96,-99.99,,,0.00,weatherlink.com 1.10,2013-06-24 12:03:00,
2013-06-24 07:18:00,74.7,74.0,30.10,ESE,118,0.0,-999.0,96,-99.99,,,0.00,weatherlink.com 1.10,2013-06-24 12:18:00,
2013-06-24 07:33:00,75.6,74.0,30.10,SSE,150,0.0,-999.0,96,-99.99,,,0.00,weatherlink.com 1.10,2013-06-24 12:33:00,
2013-06-24 07:49:00,76.6,75.0,30.11,SSE,150,0.0,-999.0,96,-99.99,,,0.00,weatherlink.com 1.10,2013-06-24 12:49:00,
2013-06-24 08:04:00,77.6,76.0,30.11,ESE,109,0.0,-999.0,95,-99.99,,,0.00,weatherlink.com 1.10,2013-06-24 13:04:00,
2013-06-24 08:34:00,80.5,78.0,30.12,South,188,1.0,-999.0,91,-99.99,,,0.01,weatherlink.com 1.10,2013-06-24 13:34:00,
2013-06-24 08:49:00,82.3,78.0,30.12,ESE,117,0.0,-999.0,87,-99.99,,,0.01,weatherlink.com 1.10,2013-06-24 13:49:00,
2013-06-24 09:04:00,84.5,79.0,30.11,South,185,0.0,-999.0,83,-99.99,,,0.01,weatherlink.com 1.10,2013-06-24 14:04:00,
2013-06-24 09:19:00,86.8,79.0,30.12,SE,129,0.0,-999.0,77,-99.99,,,0.01,weatherlink.com 1.10,2013-06-24 14:19:00,
2013-06-24 09:34:00,88.3,80.0,30.12,SE,139,1.0,-999.0,76,-99.99,,,0.01,weatherlink.com 1.10,2013-06-24 14:34:00,
2013-06-24 10:04:00,90.6,80.0,30.12,SE,124,2.0,-999.0,70,-99.99,,,0.01,weatherlink.com 1.10,2013-06-24 15:04:00,
2013-06-24 10:19:00,90.7,80.0,30.12,SE,138,4.0,-999.0,70,-99.99,,,0.01,weatherlink.com 1.10,2013-06-24 15:19:00,
2013-06-24 10:34:00,90.9,80.0,30.12,West,267,0.0,-999.0,70,-99.99,,,0.01,weatherlink.com 1.10,2013-06-24 15:34:00,
2013-06-24 10:49:00,91.5,80.0,30.12,WNW,296,1.0,-999.0,70,-99.99,,,0.01,weatherlink.com 1.10,2013-06-24 15:49:00,
2013-06-24 11:04:00,90.0,79.0,30.13,SSW,198,0.0,-999.0,70,-99.99,,,0.01,weatherlink.com 1.10,2013-06-24 16:04:00,
2013-06-24 11:34:00,90.6,79.0,30.12,WSW,254,0.0,-999.0,68,-99.99,,,0.01,weatherlink.com 1.10,2013-06-24 16:34:00,
2013-06-24 12:04:00,91.6,79.0,30.12,SSW,207,0.0,-999.0,66,-99.99,,,0.01,weatherlink.com 1.10,2013-06-24 17:04:00,
2013-06-24 12:19:00,91.3,78.0,30.11,South,169,0.0,-999.0,66,-99.99,,,0.01,weatherlink.com 1.10,2013-06-24 17:19:00,
2013-06-24 12:49:00,92.9,79.0,30.10,SE,142,0.0,-999.0,64,-99.99,,,0.01,weatherlink.com 1.10,2013-06-24 17:49:00,
2013-06-24 13:04:00,92.8,78.0,30.10,West,268,1.0,-999.0,62,-99.99,,,0.01,weatherlink.com 1.10,2013-06-24 18:04:00,
2013-06-24 13:19:00,93.2,79.0,30.10,WSW,258,0.0,-999.0,64,-99.99,,,0.01,weatherlink.com 1.10,2013-06-24 18:19:00,
2013-06-24 13:49:00,89.0,76.0,30.11,SSW,202,3.0,-999.0,66,-99.99,,,0.01,weatherlink.com 1.10,2013-06-24 18:49:00,
2013-06-24 14:04:00,85.1,73.0,30.11,WSW,255,0.0,-999.0,67,-99.99,,,0.01,weatherlink.com 1.10,2013-06-24 19:04:00,
2013-06-24 14:19:00,83.5,73.0,30.09,NW,315,0.0,-999.0,71,-99.99,,,0.01,weatherlink.com 1.10,2013-06-24 19:19:00,
2013-06-24 14:34:00,84.6,75.0,30.09,ESE,110,1.0,-999.0,73,-99.99,,,0.01,weatherlink.com 1.10,2013-06-24 19:34:00,
2013-06-24 14:49:00,87.0,77.0,30.08,SSE,165,1.0,-999.0,71,-99.99,,,0.01,weatherlink.com 1.10,2013-06-24 19:49:00,
2013-06-24 15:04:00,89.1,76.0,30.07,SSW,194,0.0,-999.0,66,-99.99,,,0.01,weatherlink.com 1.10,2013-06-24 20:04:00,
2013-06-24 15:34:00,92.1,77.0,30.08,South,173,7.0,-999.0,62,-99.99,,,0.01,weatherlink.com 1.10,2013-06-24 20:34:00,
2013-06-24 15:49:00,92.4,78.0,30.08,SSW,201,0.0,-999.0,62,-99.99,,,0.01,weatherlink.com 1.10,2013-06-24 20:49:00,
2013-06-24 16:04:00,91.2,76.0,30.08,North,351,0.0,-999.0,62,-99.99,,,0.01,weatherlink.com 1.10,2013-06-24 21:04:00,
2013-06-24 16:49:00,91.1,76.0,30.07,SSE,155,0.0,-999.0,62,-99.99,,,0.01,weatherlink.com 1.10,2013-06-24 21:49:00,
2013-06-24 17:20:00,91.1,77.0,30.07,ESE,120,1.0,-999.0,64,-99.99,,,0.01,weatherlink.com 1.10,2013-06-24 22:20:00,
2013-06-24 17:50:00,91.7,77.0,30.06,ESE,120,0.0,-999.0,63,-99.99,,,0.01,weatherlink.com 1.10,2013-06-24 22:50:00,
2013-06-24 18:05:00,91.8,76.0,30.05,ESE,121,0.0,-999.0,61,-99.99,,,0.01,weatherlink.com 1.10,2013-06-24 23:05:00,
2013-06-24 18:20:00,91.3,77.0,30.05,ESE,120,0.0,-999.0,63,-99.99,,,0.01,weatherlink.com 1.10,2013-06-24 23:20:00,
2013-06-24 18:35:00,91.1,77.0,30.04,ESE,119,0.0,-999.0,64,-99.99,,,0.01,weatherlink.com 1.10,2013-06-24 23:35:00,
2013-06-24 19:05:00,89.8,77.0,30.04,ESE,119,0.0,-999.0,66,-99.99,,,0.01,weatherlink.com 1.10,2013-06-25 00:05:00,
2013-06-24 19:20:00,88.8,77.0,30.04,North,360,0.0,-999.0,68,-99.99,,,0.01,weatherlink.com 1.10,2013-06-25 00:20:00,
2013-06-24 19:35:00,87.8,77.0,30.04,North,360,0.0,-999.0,70,-99.99,,,0.01,weatherlink.com 1.10,2013-06-25 00:35:00,
2013-06-24 19:50:00,86.9,77.0,30.04,North,360,0.0,-999.0,72,-99.99,,,0.01,weatherlink.com 1.10,2013-06-25 00:50:00,
2013-06-24 20:05:00,86.1,77.0,30.04,North,360,0.0,-999.0,74,-99.99,,,0.01,weatherlink.com 1.10,2013-06-25 01:05:00,
2013-06-24 20:20:00,85.1,76.0,30.05,North,360,0.0,-999.0,75,-99.99,,,0.01,weatherlink.com 1.10,2013-06-25 01:20:00,
2013-06-24 20:50:00,83.3,76.0,30.05,North,360,0.0,-999.0,78,-99.99,,,0.01,weatherlink.com 1.10,2013-06-25 01:50:00,
2013-06-24 21:05:00,82.4,76.0,30.05,North,360,0.0,-999.0,81,-99.99,,,0.01,weatherlink.com 1.10,2013-06-25 02:05:00,
2013-06-24 21:20:00,81.6,75.0,30.05,North,360,0.0,-999.0,81,-99.99,,,0.01,weatherlink.com 1.10,2013-06-25 02:20:00,
2013-06-24 21:35:00,80.8,75.0,30.06,North,360,0.0,-999.0,83,-99.99,,,0.01,weatherlink.com 1.10,2013-06-25 02:35:00,
2013-06-24 21:50:00,80.2,75.0,30.06,North,360,0.0,-999.0,83,-99.99,,,0.01,weatherlink.com 1.10,2013-06-25 02:50:00,
2013-06-24 22:05:00,79.6,75.0,30.07,North,360,0.0,-999.0,86,-99.99,,,0.01,weatherlink.com 1.10,2013-06-25 03:05:00,
2013-06-24 22:20:00,79.1,75.0,30.07,North,360,0.0,-999.0,87,-99.99,,,0.01,weatherlink.com 1.10,2013-06-25 03:20:00,
2013-06-24 22:35:00,78.7,75.0,30.08,North,360,0.0,-999.0,88,-99.99,,,0.01,weatherlink.com 1.10,2013-06-25 03:35:00,
2013-06-24 23:05:00,77.9,75.0,30.09,North,360,0.0,-999.0,90,-99.99,,,0.01,weatherlink.com 1.10,2013-06-25 04:05:00,
2013-06-24 23:20:00,77.5,74.0,30.10,North,360,0.0,-999.0,90,-99.99,,,0.01,weatherlink.com 1.10,2013-06-25 04:20:00,
2013-06-24 23:35:00,77.2,74.0,30.10,North,360,0.0,-999.0,90,-99.99,,,0.01,weatherlink.com 1.10,2013-06-25 04:35:00,
2013-06-24 23:50:00,76.9,74.0,30.09,North,360,0.0,-999.0,91,-99.99,,,0.01,weatherlink.com 1.10,2013-06-25 04:50:00,